Bakertown, Indiana
Current Conditions -  °F | °C
As of 11:35 PM on Thursday 20 Nov 2014 (Local Time) from KGWB Reporting Station
Clear Clear  
Wind Chill: 11°   Ceiling: Unl
Heat Index: 19°   Visibility: 10mi
Dew Point:   Wind: 6mph
Humidity: 63%   Direction: 250°WSW
Pressure: 30.2"   Gusts: NA
Location:  41.3469°N, 85.4059°W
Report Text: KGWB 210435Z AUTO 25005KT 10SM CLR M07/M13 A3020 RMK AO2
Loading
Personal Weather Stations






























Interactive Weather Map New forecast layout! Learn more

10-Day Weather Forecast

Advertisements
Track Severe Weather on mobile